Time;durP1;ratioP1;P1;durP2;ratioP2;P2;SDS_P1;SDS_P2;PMS_P1;PMS_P2;Temp;Humidity;BMP_temperature;BMP_pressure;BME280_temperature;BME280_humidity;BME280_pressure;Samples;Min_cycle;Max_cycle;Signal;HPM_P1;HPM_P2
2022/12/25 00:00:53;;;;;;;9.82;2.60;;;;;;;;;;4989202;28;20248;-61
2022/12/25 00:03:18;;;;;;;9.55;2.53;;;;;;;;;;4988922;28;20030;-61
2022/12/25 00:05:43;;;;;;;11.77;2.63;;;;;;;;;;4991562;28;20472;-61
2022/12/25 00:08:09;;;;;;;7.88;2.70;;;;;;;;;;4990672;28;20102;-61
2022/12/25 00:10:34;;;;;;;11.48;2.72;;;;;;;;;;4991886;28;20089;-61
2022/12/25 00:12:59;;;;;;;11.60;3.00;;;;;;;;;;4993507;28;20057;-61
2022/12/25 00:15:25;;;;;;;12.17;3.30;;;;;;;;;;4992585;28;20105;-61
2022/12/25 00:17:50;;;;;;;11.15;2.80;;;;;;;;;;4994020;28;20465;-60
2022/12/25 00:20:15;;;;;;;12.52;2.90;;;;;;;;;;4989876;28;20492;-60
2022/12/25 00:22:40;;;;;;;11.83;3.40;;;;;;;;;;4990386;28;20014;-61
2022/12/25 00:25:05;;;;;;;9.02;2.90;;;;;;;;;;4992888;28;20030;-61
2022/12/25 00:27:32;;;;;;;12.85;3.28;;;;;;;;;;4989849;28;20402;-61
2022/12/25 00:29:57;;;;;;;12.75;3.25;;;;;;;;;;4989861;28;20105;-61
2022/12/25 00:32:22;;;;;;;11.90;3.30;;;;;;;;;;4991208;28;20641;-61
2022/12/25 00:34:48;;;;;;;14.55;4.15;;;;;;;;;;4997708;28;20050;-61
2022/12/25 00:37:13;;;;;;;15.60;4.23;;;;;;;;;;4979970;28;20034;-61
2022/12/25 00:39:38;;;;;;;19.75;4.50;;;;;;;;;;4992138;28;20014;-61
2022/12/25 00:42:19;;;;;;;12.23;3.92;;;;;;;;;;4992298;28;20014;-61
2022/12/25 00:44:45;;;;;;;12.25;3.75;;;;;;;;;;4991888;28;20525;-61
2022/12/25 00:47:10;;;;;;;10.88;3.15;;;;;;;;;;4990486;28;20037;-62
2022/12/25 00:49:35;;;;;;;10.63;3.40;;;;;;;;;;4991776;28;20053;-62
2022/12/25 00:52:00;;;;;;;11.17;3.53;;;;;;;;;;4991329;28;20057;-61
2022/12/25 00:54:25;;;;;;;11.30;3.30;;;;;;;;;;4989898;28;20027;-61
2022/12/25 00:56:50;;;;;;;10.48;3.10;;;;;;;;;;4991554;28;20371;-61
2022/12/25 00:59:15;;;;;;;11.73;3.10;;;;;;;;;;4992247;28;20026;-60
2022/12/25 01:01:41;;;;;;;9.23;2.75;;;;;;;;;;4990032;28;20022;-61
2022/12/25 01:04:07;;;;;;;13.00;3.40;;;;;;;;;;4988591;28;20076;-60
2022/12/25 01:06:32;;;;;;;12.15;3.10;;;;;;;;;;4992194;28;20026;-60
2022/12/25 01:11:41;;;;;;;9.40;3.30;;;;;;;;;;4987817;28;20085;-61
2022/12/25 01:14:06;;;;;;;10.53;3.17;;;;;;;;;;4989809;28;20429;-61
2022/12/25 01:16:32;;;;;;;11.02;3.97;;;;;;;;;;4988578;28;20068;-61
2022/12/25 01:18:57;;;;;;;12.07;3.40;;;;;;;;;;4991507;28;20084;-61
2022/12/25 01:21:22;;;;;;;10.02;3.15;;;;;;;;;;4987807;28;20389;-61
2022/12/25 01:23:48;;;;;;;10.15;2.95;;;;;;;;;;4989509;28;20118;-61
2022/12/25 01:26:14;;;;;;;11.73;3.70;;;;;;;;;;4989428;28;20081;-61
2022/12/25 01:28:40;;;;;;;8.40;3.50;;;;;;;;;;4988291;28;20018;-61
2022/12/25 01:31:07;;;;;;;10.93;3.47;;;;;;;;;;4989499;28;20030;-61
2022/12/25 01:33:32;;;;;;;9.07;4.00;;;;;;;;;;4996845;28;20095;-61
2022/12/25 01:35:58;;;;;;;11.67;3.53;;;;;;;;;;4989718;28;20151;-59
2022/12/25 01:38:23;;;;;;;12.13;3.50;;;;;;;;;;4990441;28;20026;-62
2022/12/25 01:40:48;;;;;;;12.20;3.47;;;;;;;;;;4991102;28;20516;-59
2022/12/25 01:43:24;;;;;;;9.98;3.30;;;;;;;;;;4989746;28;20057;-61
2022/12/25 01:45:51;;;;;;;11.40;3.80;;;;;;;;;;4991138;28;20436;-60
2022/12/25 01:48:16;;;;;;;;;;;;;;;;;;4992239;28;20065;-60
2022/12/25 01:50:43;;;;;;;10.85;3.60;;;;;;;;;;4988678;28;19945;-59
2022/12/25 01:53:08;;;;;;;12.18;3.72;;;;;;;;;;4990119;28;20041;-60
2022/12/25 01:55:34;;;;;;;14.77;4.57;;;;;;;;;;4990778;28;20030;-61
2022/12/25 01:57:59;;;;;;;8.32;3.17;;;;;;;;;;4988636;28;20536;-61
2022/12/25 02:00:24;;;;;;;11.93;3.27;;;;;;;;;;4989986;28;20045;-61
2022/12/25 02:02:49;;;;;;;10.40;3.55;;;;;;;;;;4990586;28;20023;-61
2022/12/25 02:05:26;;;;;;;11.95;3.55;;;;;;;;;;4989341;28;20085;-61
2022/12/25 02:07:52;;;;;;;13.00;4.05;;;;;;;;;;4989869;28;20440;-60
2022/12/25 02:10:17;;;;;;;10.00;3.80;;;;;;;;;;4989055;28;20023;-61
2022/12/25 02:12:43;;;;;;;10.87;3.57;;;;;;;;;;4989880;28;20113;-61
2022/12/25 02:15:10;;;;;;;10.48;3.20;;;;;;;;;;4989167;28;20527;-62
2022/12/25 02:17:54;;;;;;;11.43;3.15;;;;;;;;;;4990317;28;20040;-62
2022/12/25 02:20:35;;;;;;;11.23;3.45;;;;;;;;;;4989832;28;20054;-62
2022/12/25 02:23:22;;;;;;;11.30;3.30;;;;;;;;;;4988986;28;20019;-62
2022/12/25 02:26:12;;;;;;;8.73;3.30;;;;;;;;;;4989491;28;20081;-62
2022/12/25 02:28:37;;;;;;;;;;;;;;;;;;4984842;28;20519;-62
2022/12/25 02:31:08;;;;;;;9.25;3.00;;;;;;;;;;4983347;28;20359;-61
2022/12/25 02:36:21;;;;;;;9.00;3.00;;;;;;;;;;4986186;28;20057;-62
2022/12/25 02:41:35;;;;;;;10.82;3.35;;;;;;;;;;4987103;28;20042;-61
2022/12/25 03:11:29;;;;;;;7.63;2.80;;;;;;;;;;4985899;28;20037;-61
2022/12/25 03:11:39;;;;;;;8.38;3.40;;;;;;;;;;4985793;28;20022;-61
2022/12/25 03:16:52;;;;;;;7.72;3.00;;;;;;;;;;4977188;28;20104;-61
2022/12/25 03:27:33;;;;;;;9.48;3.45;;;;;;;;;;4981559;28;20040;-61
2022/12/25 03:32:57;;;;;;;6.72;2.50;;;;;;;;;;4979811;28;20034;-61
2022/12/25 03:35:45;;;;;;;8.85;2.88;;;;;;;;;;4985831;28;20106;-61
2022/12/25 03:44:40;;;;;;;12.25;3.08;;;;;;;;;;4987415;28;20026;-61
2022/12/25 04:36:32;;;;;;;8.23;2.97;;;;;;;;;;4986768;28;20093;-61
2022/12/25 04:38:57;;;;;;;10.38;3.05;;;;;;;;;;4988642;28;20019;-60
2022/12/25 04:41:22;;;;;;;9.55;3.10;;;;;;;;;;4987016;28;20038;-61
2022/12/25 04:43:47;;;;;;;9.52;2.78;;;;;;;;;;4988815;28;20501;-61
2022/12/25 04:46:12;;;;;;;9.20;2.93;;;;;;;;;;4987326;28;20038;-61
2022/12/25 04:48:38;;;;;;;9.02;3.10;;;;;;;;;;4987173;28;20101;-61
2022/12/25 04:51:10;;;;;;;9.02;3.00;;;;;;;;;;4987287;28;20366;-61
2022/12/25 04:53:35;;;;;;;10.35;3.15;;;;;;;;;;4990283;28;20034;-61
2022/12/25 04:56:00;;;;;;;11.90;3.70;;;;;;;;;;4988235;28;20038;-61
2022/12/25 04:58:25;;;;;;;9.97;3.10;;;;;;;;;;4986980;28;20517;-61
2022/12/25 05:00:51;;;;;;;8.80;2.80;;;;;;;;;;4992050;28;20385;-61
2022/12/25 05:03:16;;;;;;;8.30;2.90;;;;;;;;;;4988549;28;20021;-60
2022/12/25 05:05:41;;;;;;;10.48;2.90;;;;;;;;;;4991578;28;20034;-60
2022/12/25 05:08:06;;;;;;;12.18;3.22;;;;;;;;;;4992368;28;20026;-61
2022/12/25 05:10:31;;;;;;;12.38;3.17;;;;;;;;;;4990077;28;20047;-60
2022/12/25 05:12:56;;;;;;;8.13;3.00;;;;;;;;;;4990099;28;20482;-61
2022/12/25 05:15:22;;;;;;;10.00;3.10;;;;;;;;;;4991625;28;20030;-61
2022/12/25 05:17:48;;;;;;;8.85;3.13;;;;;;;;;;4990350;28;20061;-61
2022/12/25 05:20:14;;;;;;;9.63;2.80;;;;;;;;;;4990533;28;20049;-61
2022/12/25 05:22:40;;;;;;;9.88;3.03;;;;;;;;;;4990988;28;20053;-61
2022/12/25 05:25:05;;;;;;;7.75;3.00;;;;;;;;;;4990713;28;20045;-60
2022/12/25 05:27:30;;;;;;;8.03;3.47;;;;;;;;;;4992073;28;20516;-60
2022/12/25 05:29:56;;;;;;;8.82;3.30;;;;;;;;;;5004776;28;20469;-61
2022/12/25 05:32:21;;;;;;;13.40;3.90;;;;;;;;;;4989862;28;20489;-60
2022/12/25 05:34:46;;;;;;;8.75;3.15;;;;;;;;;;4989708;28;20732;-60
2022/12/25 05:37:11;;;;;;;7.53;2.80;;;;;;;;;;4990744;28;20026;-60
2022/12/25 05:39:36;;;;;;;12.27;3.77;;;;;;;;;;4989113;28;20082;-60
2022/12/25 05:42:01;;;;;;;11.68;3.30;;;;;;;;;;4984804;28;21136;-61
2022/12/25 05:44:26;;;;;;;7.72;3.25;;;;;;;;;;4990784;28;20504;-61
2022/12/25 05:46:52;;;;;;;12.65;3.50;;;;;;;;;;4989590;28;20048;-61
2022/12/25 05:49:17;;;;;;;10.77;3.50;;;;;;;;;;4990003;28;20033;-62
2022/12/25 05:51:42;;;;;;;10.35;3.13;;;;;;;;;;4989238;28;20026;-61
2022/12/25 05:54:07;;;;;;;8.00;2.80;;;;;;;;;;4989825;28;20053;-61
2022/12/25 05:56:32;;;;;;;8.65;3.15;;;;;;;;;;4989979;28;20026;-61
2022/12/25 05:58:57;;;;;;;10.30;3.03;;;;;;;;;;4990857;28;20045;-61
2022/12/25 06:01:25;;;;;;;9.35;3.17;;;;;;;;;;4988619;28;20058;-61
2022/12/25 06:03:50;;;;;;;12.07;3.50;;;;;;;;;;4988730;28;20030;-61
2022/12/25 06:06:15;;;;;;;7.47;2.97;;;;;;;;;;4986471;28;20023;-62
2022/12/25 06:08:40;;;;;;;8.20;3.13;;;;;;;;;;4988048;28;20039;-62
2022/12/25 06:11:06;;;;;;;10.32;3.53;;;;;;;;;;4989613;28;20030;-61
2022/12/25 06:13:32;;;;;;;9.15;3.20;;;;;;;;;;4990601;28;20401;-62
2022/12/25 06:15:58;;;;;;;9.88;3.25;;;;;;;;;;4990583;28;20026;-61
2022/12/25 06:18:23;;;;;;;9.05;3.55;;;;;;;;;;4987886;28;20490;-61
2022/12/25 06:20:48;;;;;;;10.70;3.40;;;;;;;;;;4991210;28;20088;-61
2022/12/25 06:23:13;;;;;;;7.53;2.95;;;;;;;;;;4988614;28;20030;-62
2022/12/25 06:25:39;;;;;;;9.50;3.10;;;;;;;;;;4989865;28;20032;-62
2022/12/25 06:28:04;;;;;;;9.23;3.80;;;;;;;;;;4998172;28;20046;-62
2022/12/25 06:30:29;;;;;;;8.88;3.25;;;;;;;;;;4988372;28;20014;-61
2022/12/25 06:32:54;;;;;;;8.87;3.43;;;;;;;;;;4989596;28;20114;-61
2022/12/25 06:35:19;;;;;;;10.25;3.90;;;;;;;;;;4987708;28;20049;-61
2022/12/25 06:37:45;;;;;;;10.30;4.03;;;;;;;;;;4989479;28;20022;-62
2022/12/25 06:40:11;;;;;;;9.07;3.63;;;;;;;;;;4985454;28;20085;-61
2022/12/25 06:42:37;;;;;;;9.80;3.53;;;;;;;;;;4991605;28;20014;-61
2022/12/25 06:45:02;;;;;;;9.02;3.03;;;;;;;;;;4987700;28;20589;-65
2022/12/25 06:47:27;;;;;;;11.33;4.00;;;;;;;;;;4986814;28;20036;-61
2022/12/25 06:49:52;;;;;;;10.95;3.95;;;;;;;;;;4988028;28;20038;-60
2022/12/25 06:52:17;;;;;;;10.60;3.92;;;;;;;;;;4988789;28;20034;-61
2022/12/25 06:54:42;;;;;;;11.18;4.40;;;;;;;;;;4989328;28;20030;-60
2022/12/25 06:57:07;;;;;;;11.33;3.93;;;;;;;;;;4988854;28;20049;-60
2022/12/25 06:59:33;;;;;;;8.65;4.13;;;;;;;;;;4986514;28;20061;-61
2022/12/25 07:01:58;;;;;;;12.27;4.05;;;;;;;;;;4984893;28;20026;-61
2022/12/25 07:04:37;;;;;;;12.37;5.03;;;;;;;;;;4988983;28;20018;-61
2022/12/25 07:07:02;;;;;;;14.48;4.45;;;;;;;;;;4979732;28;20037;-63
2022/12/25 07:09:27;;;;;;;10.57;4.18;;;;;;;;;;4982792;28;20104;-61
2022/12/25 07:11:53;;;;;;;12.32;4.60;;;;;;;;;;4989037;28;20026;-62
2022/12/25 07:14:19;;;;;;;11.97;4.37;;;;;;;;;;4988888;28;20482;-62
2022/12/25 07:16:44;;;;;;;12.45;4.35;;;;;;;;;;4984132;28;20433;-62
2022/12/25 07:19:10;;;;;;;12.23;4.43;;;;;;;;;;4990987;28;20046;-60
2022/12/25 07:21:35;;;;;;;12.48;4.60;;;;;;;;;;4985709;28;20026;-61
2022/12/25 07:24:00;;;;;;;11.38;4.43;;;;;;;;;;4986667;28;20018;-60
2022/12/25 07:26:25;;;;;;;12.30;4.57;;;;;;;;;;4991727;28;20069;-61
2022/12/25 07:28:50;;;;;;;10.93;4.35;;;;;;;;;;4986458;28;20045;-61
2022/12/25 07:31:16;;;;;;;10.60;4.43;;;;;;;;;;4987935;28;20062;-61
2022/12/25 07:33:41;;;;;;;12.40;4.78;;;;;;;;;;4984508;28;20023;-61
2022/12/25 07:36:06;;;;;;;15.30;4.60;;;;;;;;;;4983757;28;20422;-61
2022/12/25 07:38:32;;;;;;;12.48;4.57;;;;;;;;;;4989497;28;20026;-61
2022/12/25 07:40:57;;;;;;;13.05;4.25;;;;;;;;;;4988228;28;20085;-62
2022/12/25 07:43:22;;;;;;;9.98;4.57;;;;;;;;;;4988109;28;20097;-62
2022/12/25 07:45:47;;;;;;;11.40;4.18;;;;;;;;;;4979712;28;20027;-61
2022/12/25 07:48:13;;;;;;;9.53;3.97;;;;;;;;;;4984894;28;20022;-62
2022/12/25 07:50:38;;;;;;;10.57;4.90;;;;;;;;;;4984921;28;20512;-62
2022/12/25 07:53:03;;;;;;;11.50;5.07;;;;;;;;;;4984634;28;20058;-62
2022/12/25 07:55:28;;;;;;;11.33;4.37;;;;;;;;;;4982816;28;20026;-62
2022/12/25 07:57:53;;;;;;;11.33;4.57;;;;;;;;;;4987107;28;20088;-62
2022/12/25 08:00:18;;;;;;;14.43;5.20;;;;;;;;;;4986653;28;20057;-62
2022/12/25 08:02:44;;;;;;;14.40;5.10;;;;;;;;;;4981168;28;20500;-61
2022/12/25 08:05:09;;;;;;;13.18;5.20;;;;;;;;;;4985729;28;20148;-61
2022/12/25 08:07:37;;;;;;;12.63;5.20;;;;;;;;;;4984997;28;20023;-60
2022/12/25 08:10:02;;;;;;;13.15;4.95;;;;;;;;;;4986695;28;20039;-61
2022/12/25 08:12:28;;;;;;;12.50;5.60;;;;;;;;;;4983487;28;20030;-61
2022/12/25 08:14:53;;;;;;;14.53;5.57;;;;;;;;;;4987853;28;20184;-61
2022/12/25 08:17:18;;;;;;;14.45;5.55;;;;;;;;;;4981909;28;20045;-61
2022/12/25 08:19:43;;;;;;;13.70;5.18;;;;;;;;;;4979735;28;20034;-61
2022/12/25 08:22:08;;;;;;;10.88;4.35;;;;;;;;;;4979399;28;20058;-61
2022/12/25 08:24:33;;;;;;;13.40;5.38;;;;;;;;;;4980921;28;20137;-61
2022/12/25 08:26:58;;;;;;;12.65;5.03;;;;;;;;;;4984793;28;20102;-61
2022/12/25 08:29:24;;;;;;;13.20;5.65;;;;;;;;;;4989056;28;20062;-61
2022/12/25 08:31:49;;;;;;;14.47;5.00;;;;;;;;;;4980534;28;20038;-61
2022/12/25 08:34:14;;;;;;;11.63;4.73;;;;;;;;;;4985971;28;20472;-61
2022/12/25 08:36:40;;;;;;;10.87;4.33;;;;;;;;;;4987113;28;20022;-61
2022/12/25 08:39:05;;;;;;;11.98;5.25;;;;;;;;;;4985231;28;20445;-62
2022/12/25 08:41:31;;;;;;;11.77;5.20;;;;;;;;;;4981998;28;20038;-62
2022/12/25 08:43:56;;;;;;;14.98;5.22;;;;;;;;;;4984167;28;20482;-62
2022/12/25 08:46:21;;;;;;;13.23;5.60;;;;;;;;;;4983502;28;20026;-62
2022/12/25 08:48:47;;;;;;;13.85;5.75;;;;;;;;;;4988230;28;20076;-61
2022/12/25 08:51:14;;;;;;;12.32;5.45;;;;;;;;;;4986310;28;20030;-61
2022/12/25 08:53:40;;;;;;;12.75;5.55;;;;;;;;;;4988162;28;20109;-61
2022/12/25 08:56:06;;;;;;;15.43;5.70;;;;;;;;;;4989493;28;20026;-61
2022/12/25 08:58:31;;;;;;;16.02;6.40;;;;;;;;;;4988309;28;20761;-62
2022/12/25 09:00:57;;;;;;;15.07;5.68;;;;;;;;;;4987662;28;20072;-61
2022/12/25 09:03:22;;;;;;;14.27;6.13;;;;;;;;;;4985426;28;20114;-62
2022/12/25 09:05:48;;;;;;;13.82;7.05;;;;;;;;;;4987218;28;20109;-61
2022/12/25 09:08:13;;;;;;;13.23;5.50;;;;;;;;;;4988574;28;20102;-62
2022/12/25 09:10:38;;;;;;;11.90;6.43;;;;;;;;;;4989073;28;20034;-61
2022/12/25 09:13:03;;;;;;;14.13;6.05;;;;;;;;;;4984920;28;20037;-61
2022/12/25 09:15:29;;;;;;;12.98;5.55;;;;;;;;;;4984926;28;20031;-61
2022/12/25 09:17:54;;;;;;;13.07;5.40;;;;;;;;;;4988510;28;20022;-63
2022/12/25 09:20:19;;;;;;;13.60;5.70;;;;;;;;;;4982629;28;20793;-61
2022/12/25 09:22:44;;;;;;;12.75;6.22;;;;;;;;;;4986338;28;20026;-61
2022/12/25 09:25:10;;;;;;;12.45;5.45;;;;;;;;;;4985755;28;20031;-62
2022/12/25 09:27:35;;;;;;;12.40;5.10;;;;;;;;;;4988821;28;20753;-61
2022/12/25 09:30:00;;;;;;;12.48;5.00;;;;;;;;;;4982544;28;20269;-61
2022/12/25 09:32:25;;;;;;;12.97;5.60;;;;;;;;;;4985359;28;20034;-61
2022/12/25 09:34:50;;;;;;;11.95;5.20;;;;;;;;;;4988326;28;20137;-62
2022/12/25 09:37:15;;;;;;;12.20;5.53;;;;;;;;;;4987175;28;20061;-60
2022/12/25 09:39:40;;;;;;;14.02;5.80;;;;;;;;;;4989042;28;20026;-60
2022/12/25 09:42:13;;;;;;;12.87;5.17;;;;;;;;;;4987076;28;20053;-60
2022/12/25 09:44:43;;;;;;;12.32;5.43;;;;;;;;;;4982610;28;20109;-60
2022/12/25 09:47:28;;;;;;;11.25;5.15;;;;;;;;;;4990067;28;20033;-62
2022/12/25 09:49:53;;;;;;;12.63;5.47;;;;;;;;;;4988925;28;20056;-60
2022/12/25 09:52:20;;;;;;;12.77;5.50;;;;;;;;;;4988151;28;20031;-60
2022/12/25 09:54:53;;;;;;;12.73;5.53;;;;;;;;;;4986598;28;20026;-60
2022/12/25 09:57:18;;;;;;;12.23;4.97;;;;;;;;;;4986730;28;20033;-60
2022/12/25 09:59:43;;;;;;;10.47;4.97;;;;;;;;;;4986447;28;20026;-60
2022/12/25 10:02:20;;;;;;;11.25;5.28;;;;;;;;;;4981178;28;20508;-60
2022/12/25 10:05:12;;;;;;;14.55;5.75;;;;;;;;;;4987009;28;20097;-59
2022/12/25 10:07:48;;;;;;;15.05;5.03;;;;;;;;;;4981978;28;20038;-61
2022/12/25 10:14:01;;;;;;;11.20;4.93;;;;;;;;;;4921756;29;20080;-61
2022/12/25 10:16:43;;;;;;;10.95;4.32;;;;;;;;;;4969897;28;20046;-59
2022/12/25 10:19:14;;;;;;;11.20;4.72;;;;;;;;;;4986627;28;20033;-60
2022/12/25 10:21:40;;;;;;;11.13;4.78;;;;;;;;;;4984733;28;20168;-59
2022/12/25 10:24:24;;;;;;;14.00;5.40;;;;;;;;;;4992032;28;20121;-60
2022/12/25 10:26:50;;;;;;;12.50;5.10;;;;;;;;;;4991083;28;20030;-60
2022/12/25 10:29:18;;;;;;;12.63;4.80;;;;;;;;;;4988354;28;20034;-60
2022/12/25 10:31:44;;;;;;;11.10;4.78;;;;;;;;;;4986234;28;20022;-60
2022/12/25 10:34:10;;;;;;;10.13;4.15;;;;;;;;;;4989326;28;20034;-60
2022/12/25 10:36:36;;;;;;;10.63;4.55;;;;;;;;;;4983655;28;20504;-59
2022/12/25 10:39:01;;;;;;;9.13;4.30;;;;;;;;;;4982002;28;20023;-60
2022/12/25 10:41:45;;;;;;;11.60;4.43;;;;;;;;;;4979061;28;20031;-60
2022/12/25 10:44:14;;;;;;;12.13;4.60;;;;;;;;;;4980402;28;20022;-60
2022/12/25 10:46:40;;;;;;;11.45;4.30;;;;;;;;;;4985671;28;20029;-60
2022/12/25 10:49:12;;;;;;;13.00;4.50;;;;;;;;;;4988350;28;20854;-60
2022/12/25 10:51:37;;;;;;;12.65;5.20;;;;;;;;;;4983871;28;20497;-60
2022/12/25 10:54:17;;;;;;;11.65;4.30;;;;;;;;;;4988121;28;20117;-60
2022/12/25 10:56:52;;;;;;;12.52;4.65;;;;;;;;;;4984049;28;20022;-61
2022/12/25 10:59:17;;;;;;;9.90;4.07;;;;;;;;;;4990249;28;20015;-61
2022/12/25 11:01:42;;;;;;;14.20;5.00;;;;;;;;;;4986155;28;20018;-60
2022/12/25 11:04:16;;;;;;;9.67;4.43;;;;;;;;;;4985785;28;20109;-60
2022/12/25 11:06:41;;;;;;;12.20;5.20;;;;;;;;;;4984827;28;20045;-60
2022/12/25 11:09:14;;;;;;;9.90;4.47;;;;;;;;;;4994748;28;20037;-60
2022/12/25 11:11:39;;;;;;;11.77;4.82;;;;;;;;;;4991820;28;20022;-61
2022/12/25 11:14:04;;;;;;;10.88;4.28;;;;;;;;;;4989715;28;20057;-61
2022/12/25 11:16:37;;;;;;;10.45;4.78;;;;;;;;;;4988492;28;20020;-61
2022/12/25 11:19:02;;;;;;;;;;;;;;;;;;4988148;28;20143;-60
2022/12/25 11:21:31;;;;;;;13.32;4.43;;;;;;;;;;4985444;28;19918;-61
2022/12/25 11:24:01;;;;;;;10.80;4.60;;;;;;;;;;4987138;28;20053;-61
2022/12/25 11:26:27;;;;;;;12.20;4.53;;;;;;;;;;4984406;28;20485;-60
2022/12/25 11:28:53;;;;;;;11.93;4.28;;;;;;;;;;4985324;28;20030;-61
2022/12/25 11:31:19;;;;;;;10.98;4.85;;;;;;;;;;4985156;28;20057;-61
2022/12/25 11:33:49;;;;;;;11.63;4.47;;;;;;;;;;4980626;28;20055;-60
2022/12/25 11:36:18;;;;;;;10.38;4.40;;;;;;;;;;4987604;28;20105;-63
2022/12/25 11:38:43;;;;;;;13.95;4.25;;;;;;;;;;4985001;28;20485;-60
2022/12/25 11:41:09;;;;;;;9.88;4.05;;;;;;;;;;4986268;28;20034;-61
2022/12/25 11:43:38;;;;;;;10.95;4.18;;;;;;;;;;4988831;28;20022;-60
2022/12/25 11:46:09;;;;;;;10.68;4.05;;;;;;;;;;4989566;28;20474;-60
2022/12/25 11:48:39;;;;;;;9.98;4.25;;;;;;;;;;4989820;28;20529;-60
2022/12/25 11:51:05;;;;;;;11.57;4.40;;;;;;;;;;4988387;28;20034;-60
2022/12/25 11:53:32;;;;;;;13.32;3.60;;;;;;;;;;4987172;28;20500;-60
2022/12/25 11:56:00;;;;;;;10.63;4.30;;;;;;;;;;4989955;28;20050;-61
2022/12/25 11:58:34;;;;;;;11.20;4.10;;;;;;;;;;4990687;28;20023;-60
2022/12/25 12:01:03;;;;;;;13.20;4.22;;;;;;;;;;4991486;28;20026;-61
2022/12/25 12:03:31;;;;;;;12.05;4.25;;;;;;;;;;4993628;28;20068;-61
2022/12/25 12:05:58;;;;;;;11.00;4.38;;;;;;;;;;4992838;28;20030;-60
2022/12/25 12:08:24;;;;;;;11.30;3.83;;;;;;;;;;4994527;28;20022;-61
2022/12/25 12:11:17;;;;;;;12.40;4.13;;;;;;;;;;4992079;28;20805;-59
2022/12/25 12:13:45;;;;;;;10.25;4.00;;;;;;;;;;4994331;28;20046;-60
2022/12/25 12:16:10;;;;;;;15.25;4.80;;;;;;;;;;4992145;28;20030;-61
2022/12/25 12:18:36;;;;;;;9.88;4.00;;;;;;;;;;5004224;28;20404;-60
2022/12/25 12:21:03;;;;;;;14.27;4.50;;;;;;;;;;5001306;28;20027;-60
2022/12/25 12:23:29;;;;;;;14.65;4.95;;;;;;;;;;4993957;28;20034;-61
2022/12/25 12:25:55;;;;;;;9.40;4.35;;;;;;;;;;4989890;28;20084;-59
2022/12/25 12:28:23;;;;;;;10.65;4.40;;;;;;;;;;4992859;28;20026;-60
2022/12/25 12:30:57;;;;;;;10.45;4.82;;;;;;;;;;4992416;28;20075;-60
2022/12/25 12:33:24;;;;;;;10.02;3.95;;;;;;;;;;4994020;28;20378;-60
2022/12/25 12:35:49;;;;;;;12.50;4.20;;;;;;;;;;4991646;28;20025;-60
2022/12/25 12:38:16;;;;;;;10.80;4.32;;;;;;;;;;4992961;28;20097;-60
2022/12/25 12:40:42;;;;;;;11.63;4.35;;;;;;;;;;4993972;28;20042;-60
2022/12/25 12:43:24;;;;;;;11.07;4.25;;;;;;;;;;4992906;28;20026;-60
2022/12/25 12:45:54;;;;;;;11.27;4.22;;;;;;;;;;4988365;28;20414;-60
2022/12/25 12:48:23;;;;;;;10.90;3.40;;;;;;;;;;4988969;28;20444;-60
2022/12/25 12:50:48;;;;;;;10.05;3.83;;;;;;;;;;4993009;28;20037;-60
2022/12/25 12:53:26;;;;;;;7.93;3.70;;;;;;;;;;4989036;28;20018;-60
2022/12/25 12:55:51;;;;;;;9.88;3.92;;;;;;;;;;4992937;28;20057;-60
2022/12/25 12:58:26;;;;;;;12.57;3.80;;;;;;;;;;4989650;28;20413;-61
2022/12/25 13:00:56;;;;;;;10.50;3.88;;;;;;;;;;4986204;28;20425;-60
2022/12/25 13:03:27;;;;;;;11.52;3.33;;;;;;;;;;4983545;28;20037;-59
2022/12/25 13:05:56;;;;;;;11.07;3.83;;;;;;;;;;4987345;28;20042;-60
2022/12/25 13:08:33;;;;;;;10.02;4.05;;;;;;;;;;4988697;28;20052;-60
2022/12/25 13:11:10;;;;;;;10.38;4.03;;;;;;;;;;4989934;28;20026;-60
2022/12/25 13:13:39;;;;;;;10.55;4.47;;;;;;;;;;4981343;28;20046;-60
2022/12/25 13:16:05;;;;;;;11.45;4.30;;;;;;;;;;4990760;28;20030;-60
2022/12/25 13:18:31;;;;;;;11.00;4.40;;;;;;;;;;5007190;28;20141;-60
2022/12/25 13:20:58;;;;;;;11.65;4.65;;;;;;;;;;4990371;28;20045;-59
2022/12/25 13:23:28;;;;;;;10.13;4.50;;;;;;;;;;4989702;28;20041;-60
2022/12/25 13:25:57;;;;;;;13.70;5.10;;;;;;;;;;4989414;28;20026;-60
2022/12/25 13:28:26;;;;;;;10.82;4.68;;;;;;;;;;4990233;28;20465;-60
2022/12/25 13:30:51;;;;;;;11.23;4.88;;;;;;;;;;4990015;28;20131;-61
2022/12/25 13:33:18;;;;;;;10.70;4.30;;;;;;;;;;4988220;28;20046;-60
2022/12/25 13:35:43;;;;;;;11.85;4.97;;;;;;;;;;4987776;28;20014;-61
2022/12/25 13:38:13;;;;;;;11.07;4.70;;;;;;;;;;4986817;28;20840;-61
2022/12/25 13:42:04;;;;;;;11.82;4.47;;;;;;;;;;4989435;28;20498;-59
2022/12/25 13:43:24;;;;;;;12.93;5.50;;;;;;;;;;4987390;28;20050;-59
2022/12/25 13:45:53;;;;;;;12.40;5.03;;;;;;;;;;4984103;28;20018;-60
2022/12/25 13:48:19;;;;;;;12.88;4.38;;;;;;;;;;4992049;28;20389;-61
2022/12/25 13:50:54;;;;;;;11.93;4.65;;;;;;;;;;4986887;28;20022;-60
2022/12/25 13:53:19;;;;;;;11.23;5.32;;;;;;;;;;4989589;28;20088;-60
2022/12/25 13:55:49;;;;;;;13.33;5.03;;;;;;;;;;4987827;28;20470;-60
2022/12/25 13:58:21;;;;;;;12.25;5.30;;;;;;;;;;4975699;28;20105;-60
2022/12/25 14:00:48;;;;;;;14.45;5.75;;;;;;;;;;4984356;28;20089;-60
2022/12/25 14:03:21;;;;;;;13.05;5.40;;;;;;;;;;4985597;28;20050;-60
2022/12/25 14:05:54;;;;;;;12.32;5.20;;;;;;;;;;4991948;28;20034;-60
2022/12/25 14:08:22;;;;;;;13.02;4.93;;;;;;;;;;5000557;28;20102;-59
2022/12/25 14:10:49;;;;;;;14.00;5.40;;;;;;;;;;4988674;28;20073;-60
2022/12/25 14:13:14;;;;;;;12.65;5.38;;;;;;;;;;4991208;28;20042;-59
2022/12/25 14:15:40;;;;;;;13.60;5.07;;;;;;;;;;4999999;28;20037;-61
2022/12/25 14:18:06;;;;;;;12.13;4.88;;;;;;;;;;4993492;28;20441;-60
2022/12/25 14:20:36;;;;;;;13.02;5.35;;;;;;;;;;4986406;28;20014;-61
2022/12/25 14:23:01;;;;;;;13.13;5.18;;;;;;;;;;4983474;28;20026;-62
2022/12/25 14:25:32;;;;;;;16.53;5.47;;;;;;;;;;4990479;28;20026;-62
2022/12/25 14:27:57;;;;;;;14.52;5.13;;;;;;;;;;4991186;28;20106;-62
2022/12/25 14:30:24;;;;;;;14.57;5.60;;;;;;;;;;4989139;28;20500;-63
2022/12/25 14:32:52;;;;;;;13.25;5.20;;;;;;;;;;4991159;28;20868;-62
2022/12/25 14:35:17;;;;;;;12.35;5.45;;;;;;;;;;4991960;28;20422;-62
2022/12/25 14:37:43;;;;;;;13.68;4.78;;;;;;;;;;4989779;28;20133;-62
2022/12/25 14:40:44;;;;;;;10.38;4.85;;;;;;;;;;4991096;28;20080;-62
2022/12/25 14:43:23;;;;;;;13.07;5.15;;;;;;;;;;4964025;28;20101;-62
2022/12/25 14:45:56;;;;;;;12.75;5.07;;;;;;;;;;4990655;28;20546;-62
2022/12/25 14:48:21;;;;;;;;;;;;;;;;;;4992491;28;20033;-62
2022/12/25 14:51:01;;;;;;;12.65;4.80;;;;;;;;;;4990659;28;20013;-62
2022/12/25 14:53:34;;;;;;;12.43;4.82;;;;;;;;;;4986243;28;20133;-62
2022/12/25 14:56:00;;;;;;;13.07;5.38;;;;;;;;;;4982860;28;20026;-62
2022/12/25 14:58:26;;;;;;;11.90;4.73;;;;;;;;;;4988251;28;20033;-62
2022/12/25 15:01:01;;;;;;;14.38;4.82;;;;;;;;;;4985593;28;20445;-61
2022/12/25 15:03:30;;;;;;;17.08;5.40;;;;;;;;;;4984023;28;20033;-62
2022/12/25 15:05:57;;;;;;;12.13;4.90;;;;;;;;;;4983484;28;20428;-62
2022/12/25 15:08:22;;;;;;;10.90;4.53;;;;;;;;;;4984183;28;20415;-61
2022/12/25 15:10:48;;;;;;;12.10;4.90;;;;;;;;;;4979872;28;20097;-62
2022/12/25 15:13:16;;;;;;;12.07;4.90;;;;;;;;;;4985811;28;20046;-62
2022/12/25 15:15:47;;;;;;;12.23;4.55;;;;;;;;;;4978724;28;20569;-62
2022/12/25 15:18:12;;;;;;;10.27;5.05;;;;;;;;;;4985284;28;20030;-61
2022/12/25 15:20:38;;;;;;;11.68;5.10;;;;;;;;;;4978198;28;20025;-63
2022/12/25 15:23:03;;;;;;;12.83;5.30;;;;;;;;;;4985306;28;20481;-61
2022/12/25 15:25:28;;;;;;;13.00;5.60;;;;;;;;;;4985338;28;20037;-62
2022/12/25 15:27:53;;;;;;;13.00;5.50;;;;;;;;;;4987500;28;20440;-63
2022/12/25 15:30:19;;;;;;;13.10;5.47;;;;;;;;;;4977356;28;21090;-62
2022/12/25 15:32:44;;;;;;;11.73;5.63;;;;;;;;;;4976118;28;20453;-61
2022/12/25 15:35:14;;;;;;;13.83;6.23;;;;;;;;;;4983701;28;20774;-63
2022/12/25 15:37:39;;;;;;;10.18;5.47;;;;;;;;;;4982414;28;20495;-62
2022/12/25 15:40:04;;;;;;;11.05;5.53;;;;;;;;;;4987415;28;20129;-62
2022/12/25 15:42:30;;;;;;;12.38;5.60;;;;;;;;;;4986788;28;20035;-62
2022/12/25 15:44:55;;;;;;;13.13;6.20;;;;;;;;;;4988228;28;20026;-63
2022/12/25 15:47:21;;;;;;;14.40;5.70;;;;;;;;;;4987738;28;20133;-63
2022/12/25 15:49:46;;;;;;;14.70;6.05;;;;;;;;;;4986474;28;20022;-63
2022/12/25 15:52:13;;;;;;;13.33;5.80;;;;;;;;;;4982984;28;20037;-64
2022/12/25 15:54:38;;;;;;;11.05;5.47;;;;;;;;;;4982813;28;20037;-63
2022/12/25 15:57:05;;;;;;;13.60;5.80;;;;;;;;;;4983291;28;20034;-63
2022/12/25 15:59:30;;;;;;;12.63;6.13;;;;;;;;;;4983537;28;20422;-63
2022/12/25 16:01:57;;;;;;;15.07;5.80;;;;;;;;;;4983216;28;20030;-62
2022/12/25 16:04:23;;;;;;;12.02;5.70;;;;;;;;;;4984958;28;20014;-63
2022/12/25 16:06:48;;;;;;;14.82;6.80;;;;;;;;;;4980530;28;20022;-61
2022/12/25 16:09:14;;;;;;;15.38;6.22;;;;;;;;;;4977553;28;20371;-62
2022/12/25 16:11:39;;;;;;;12.98;6.65;;;;;;;;;;4976980;28;20084;-62
2022/12/25 16:14:05;;;;;;;15.80;6.37;;;;;;;;;;4983035;28;20663;-61
2022/12/25 16:16:30;;;;;;;13.77;6.30;;;;;;;;;;4985808;28;20842;-62
2022/12/25 16:18:56;;;;;;;18.02;7.13;;;;;;;;;;4983265;28;20035;-61
2022/12/25 16:21:21;;;;;;;16.30;6.75;;;;;;;;;;4985057;28;20018;-62